sensor_id;sensor_type;location;lat;lon;timestamp;P1;durP1;ratioP1;P2;durP2;ratioP2
16813;SDS011;8524;57.650;11.926;2022-10-16T00:02:22;8.43;;;4.07;;
16813;SDS011;8524;57.650;11.926;2022-10-16T00:04:49;11.60;;;4.13;;
16813;SDS011;8524;57.650;11.926;2022-10-16T00:07:15;10.90;;;3.80;;
16813;SDS011;8524;57.650;11.926;2022-10-16T00:09:42;8.57;;;3.67;;
16813;SDS011;8524;57.650;11.926;2022-10-16T00:12:09;11.70;;;3.60;;
16813;SDS011;8524;57.650;11.926;2022-10-16T00:14:37;13.87;;;4.07;;
16813;SDS011;8524;57.650;11.926;2022-10-16T00:17:06;11.33;;;4.00;;
16813;SDS011;8524;57.650;11.926;2022-10-16T00:19:33;7.47;;;3.20;;
16813;SDS011;8524;57.650;11.926;2022-10-16T00:22:00;8.90;;;3.83;;
16813;SDS011;8524;57.650;11.926;2022-10-16T00:24:28;8.47;;;3.03;;
16813;SDS011;8524;57.650;11.926;2022-10-16T00:26:55;7.63;;;3.60;;
16813;SDS011;8524;57.650;11.926;2022-10-16T00:29:21;9.93;;;2.97;;
16813;SDS011;8524;57.650;11.926;2022-10-16T00:31:50;8.27;;;3.50;;
16813;SDS011;8524;57.650;11.926;2022-10-16T00:34:17;8.10;;;2.80;;
16813;SDS011;8524;57.650;11.926;2022-10-16T00:36:43;7.73;;;3.03;;
16813;SDS011;8524;57.650;11.926;2022-10-16T00:39:10;6.57;;;3.10;;
16813;SDS011;8524;57.650;11.926;2022-10-16T00:41:37;6.73;;;2.90;;
16813;SDS011;8524;57.650;11.926;2022-10-16T00:47:07;10.53;;;2.90;;
16813;SDS011;8524;57.650;11.926;2022-10-16T00:49:35;9.07;;;3.20;;
16813;SDS011;8524;57.650;11.926;2022-10-16T00:52:02;10.37;;;3.30;;
16813;SDS011;8524;57.650;11.926;2022-10-16T00:54:30;6.83;;;2.70;;
16813;SDS011;8524;57.650;11.926;2022-10-16T00:56:59;4.80;;;2.43;;
16813;SDS011;8524;57.650;11.926;2022-10-16T00:59:28;6.57;;;2.50;;
16813;SDS011;8524;57.650;11.926;2022-10-16T01:01:56;4.70;;;2.40;;
16813;SDS011;8524;57.650;11.926;2022-10-16T01:04:26;7.07;;;2.73;;
16813;SDS011;8524;57.650;11.926;2022-10-16T01:06:58;4.80;;;2.50;;
16813;SDS011;8524;57.650;11.926;2022-10-16T01:09:31;6.80;;;2.73;;
16813;SDS011;8524;57.650;11.926;2022-10-16T01:12:05;8.00;;;2.43;;
16813;SDS011;8524;57.650;11.926;2022-10-16T01:14:38;7.27;;;2.50;;
16813;SDS011;8524;57.650;11.926;2022-10-16T01:17:10;6.80;;;2.63;;
16813;SDS011;8524;57.650;11.926;2022-10-16T01:19:56;6.50;;;2.47;;
16813;SDS011;8524;57.650;11.926;2022-10-16T01:22:33;7.30;;;2.53;;
16813;SDS011;8524;57.650;11.926;2022-10-16T01:25:09;6.00;;;2.80;;
16813;SDS011;8524;57.650;11.926;2022-10-16T01:27:44;9.80;;;2.90;;
16813;SDS011;8524;57.650;11.926;2022-10-16T01:30:13;9.03;;;2.53;;
16813;SDS011;8524;57.650;11.926;2022-10-16T01:32:45;8.27;;;2.40;;
16813;SDS011;8524;57.650;11.926;2022-10-16T01:35:17;8.47;;;3.03;;
16813;SDS011;8524;57.650;11.926;2022-10-16T01:37:48;7.40;;;3.00;;
16813;SDS011;8524;57.650;11.926;2022-10-16T01:40:19;7.97;;;2.43;;
16813;SDS011;8524;57.650;11.926;2022-10-16T01:42:50;9.03;;;2.83;;
16813;SDS011;8524;57.650;11.926;2022-10-16T01:45:21;6.50;;;2.77;;
16813;SDS011;8524;57.650;11.926;2022-10-16T01:47:49;8.70;;;2.63;;
16813;SDS011;8524;57.650;11.926;2022-10-16T01:50:18;8.80;;;2.87;;
16813;SDS011;8524;57.650;11.926;2022-10-16T01:52:47;7.67;;;2.80;;
16813;SDS011;8524;57.650;11.926;2022-10-16T01:55:17;8.77;;;2.70;;
16813;SDS011;8524;57.650;11.926;2022-10-16T01:57:49;5.53;;;2.30;;
16813;SDS011;8524;57.650;11.926;2022-10-16T02:00:19;4.90;;;2.00;;
16813;SDS011;8524;57.650;11.926;2022-10-16T02:02:49;5.50;;;2.47;;
16813;SDS011;8524;57.650;11.926;2022-10-16T02:05:21;5.43;;;2.73;;
16813;SDS011;8524;57.650;11.926;2022-10-16T02:07:52;4.20;;;2.37;;
16813;SDS011;8524;57.650;11.926;2022-10-16T02:10:19;8.77;;;3.10;;
16813;SDS011;8524;57.650;11.926;2022-10-16T02:12:47;6.47;;;2.70;;
16813;SDS011;8524;57.650;11.926;2022-10-16T02:15:20;6.83;;;2.50;;
16813;SDS011;8524;57.650;11.926;2022-10-16T02:17:46;7.10;;;2.97;;
16813;SDS011;8524;57.650;11.926;2022-10-16T02:20:13;7.33;;;3.20;;
16813;SDS011;8524;57.650;11.926;2022-10-16T02:22:42;6.40;;;2.60;;
16813;SDS011;8524;57.650;11.926;2022-10-16T02:25:15;7.97;;;3.00;;
16813;SDS011;8524;57.650;11.926;2022-10-16T02:27:47;12.63;;;3.63;;
16813;SDS011;8524;57.650;11.926;2022-10-16T02:30:21;7.80;;;3.07;;
16813;SDS011;8524;57.650;11.926;2022-10-16T02:32:59;9.07;;;3.00;;
16813;SDS011;8524;57.650;11.926;2022-10-16T02:35:28;8.23;;;2.90;;
16813;SDS011;8524;57.650;11.926;2022-10-16T02:37:57;7.23;;;3.10;;
16813;SDS011;8524;57.650;11.926;2022-10-16T02:40:25;7.70;;;3.17;;
16813;SDS011;8524;57.650;11.926;2022-10-16T02:42:54;7.63;;;2.93;;
16813;SDS011;8524;57.650;11.926;2022-10-16T02:45:22;8.60;;;3.03;;
16813;SDS011;8524;57.650;11.926;2022-10-16T02:47:49;9.37;;;3.10;;
16813;SDS011;8524;57.650;11.926;2022-10-16T02:50:16;9.27;;;3.23;;
16813;SDS011;8524;57.650;11.926;2022-10-16T02:52:43;9.00;;;3.17;;
16813;SDS011;8524;57.650;11.926;2022-10-16T02:55:10;8.67;;;3.20;;
16813;SDS011;8524;57.650;11.926;2022-10-16T02:57:37;7.03;;;2.73;;
16813;SDS011;8524;57.650;11.926;2022-10-16T03:00:07;6.20;;;2.70;;
16813;SDS011;8524;57.650;11.926;2022-10-16T03:02:35;6.57;;;2.70;;
16813;SDS011;8524;57.650;11.926;2022-10-16T03:05:02;9.20;;;3.37;;
16813;SDS011;8524;57.650;11.926;2022-10-16T03:07:29;9.87;;;3.07;;
16813;SDS011;8524;57.650;11.926;2022-10-16T03:09:56;6.97;;;2.73;;
16813;SDS011;8524;57.650;11.926;2022-10-16T03:12:25;9.93;;;3.17;;
16813;SDS011;8524;57.650;11.926;2022-10-16T03:14:52;6.63;;;2.47;;
16813;SDS011;8524;57.650;11.926;2022-10-16T03:17:20;8.00;;;2.67;;
16813;SDS011;8524;57.650;11.926;2022-10-16T03:19:47;9.27;;;3.10;;
16813;SDS011;8524;57.650;11.926;2022-10-16T03:22:14;7.97;;;2.93;;
16813;SDS011;8524;57.650;11.926;2022-10-16T03:24:41;10.00;;;3.20;;
16813;SDS011;8524;57.650;11.926;2022-10-16T03:27:08;8.03;;;3.00;;
16813;SDS011;8524;57.650;11.926;2022-10-16T03:29:35;7.60;;;2.97;;
16813;SDS011;8524;57.650;11.926;2022-10-16T03:32:02;7.97;;;3.00;;
16813;SDS011;8524;57.650;11.926;2022-10-16T03:34:30;7.50;;;2.33;;
16813;SDS011;8524;57.650;11.926;2022-10-16T03:36:57;10.33;;;3.30;;
16813;SDS011;8524;57.650;11.926;2022-10-16T03:39:24;7.03;;;2.90;;
16813;SDS011;8524;57.650;11.926;2022-10-16T03:41:51;5.63;;;2.60;;
16813;SDS011;8524;57.650;11.926;2022-10-16T03:44:18;6.00;;;2.60;;
16813;SDS011;8524;57.650;11.926;2022-10-16T03:46:44;7.57;;;2.77;;
16813;SDS011;8524;57.650;11.926;2022-10-16T03:49:11;7.23;;;2.97;;
16813;SDS011;8524;57.650;11.926;2022-10-16T03:51:40;6.67;;;2.57;;
16813;SDS011;8524;57.650;11.926;2022-10-16T03:54:06;6.43;;;2.53;;
16813;SDS011;8524;57.650;11.926;2022-10-16T03:56:33;3.93;;;2.27;;
16813;SDS011;8524;57.650;11.926;2022-10-16T03:59:00;5.10;;;2.70;;
16813;SDS011;8524;57.650;11.926;2022-10-16T04:01:27;5.53;;;2.50;;
16813;SDS011;8524;57.650;11.926;2022-10-16T04:03:54;6.50;;;2.47;;
16813;SDS011;8524;57.650;11.926;2022-10-16T04:06:21;4.20;;;2.40;;
16813;SDS011;8524;57.650;11.926;2022-10-16T04:08:49;6.47;;;2.20;;
16813;SDS011;8524;57.650;11.926;2022-10-16T04:11:16;5.63;;;2.37;;
16813;SDS011;8524;57.650;11.926;2022-10-16T04:13:43;6.37;;;2.33;;
16813;SDS011;8524;57.650;11.926;2022-10-16T04:16:09;5.77;;;2.50;;
16813;SDS011;8524;57.650;11.926;2022-10-16T04:18:36;5.77;;;2.50;;
16813;SDS011;8524;57.650;11.926;2022-10-16T04:21:03;5.67;;;2.60;;
16813;SDS011;8524;57.650;11.926;2022-10-16T04:23:31;4.90;;;2.20;;
16813;SDS011;8524;57.650;11.926;2022-10-16T04:26:00;6.07;;;2.60;;
16813;SDS011;8524;57.650;11.926;2022-10-16T04:28:27;3.87;;;2.30;;
16813;SDS011;8524;57.650;11.926;2022-10-16T04:30:54;4.17;;;2.37;;
16813;SDS011;8524;57.650;11.926;2022-10-16T04:33:21;4.23;;;2.10;;
16813;SDS011;8524;57.650;11.926;2022-10-16T04:35:48;6.33;;;2.30;;
16813;SDS011;8524;57.650;11.926;2022-10-16T04:38:21;5.17;;;2.07;;
16813;SDS011;8524;57.650;11.926;2022-10-16T04:40:48;4.63;;;2.63;;
16813;SDS011;8524;57.650;11.926;2022-10-16T04:43:16;5.40;;;2.20;;
16813;SDS011;8524;57.650;11.926;2022-10-16T04:45:43;7.27;;;2.47;;
16813;SDS011;8524;57.650;11.926;2022-10-16T04:48:11;7.67;;;3.00;;
16813;SDS011;8524;57.650;11.926;2022-10-16T04:50:37;5.33;;;2.67;;
16813;SDS011;8524;57.650;11.926;2022-10-16T04:53:04;5.17;;;2.73;;
16813;SDS011;8524;57.650;11.926;2022-10-16T04:55:32;4.93;;;2.27;;
16813;SDS011;8524;57.650;11.926;2022-10-16T04:57:59;4.60;;;2.50;;
16813;SDS011;8524;57.650;11.926;2022-10-16T05:00:27;7.30;;;3.10;;
16813;SDS011;8524;57.650;11.926;2022-10-16T05:02:54;9.50;;;2.63;;
16813;SDS011;8524;57.650;11.926;2022-10-16T05:05:22;6.13;;;2.40;;
16813;SDS011;8524;57.650;11.926;2022-10-16T05:07:49;4.27;;;2.67;;
16813;SDS011;8524;57.650;11.926;2022-10-16T05:10:16;8.07;;;2.50;;
16813;SDS011;8524;57.650;11.926;2022-10-16T05:12:43;4.40;;;2.20;;
16813;SDS011;8524;57.650;11.926;2022-10-16T05:15:10;4.57;;;2.53;;
16813;SDS011;8524;57.650;11.926;2022-10-16T05:17:38;5.97;;;2.27;;
16813;SDS011;8524;57.650;11.926;2022-10-16T05:20:05;5.37;;;2.63;;
16813;SDS011;8524;57.650;11.926;2022-10-16T05:22:33;5.67;;;2.70;;
16813;SDS011;8524;57.650;11.926;2022-10-16T05:25:00;7.43;;;3.30;;
16813;SDS011;8524;57.650;11.926;2022-10-16T05:27:26;6.73;;;2.97;;
16813;SDS011;8524;57.650;11.926;2022-10-16T05:29:53;6.57;;;2.83;;
16813;SDS011;8524;57.650;11.926;2022-10-16T05:32:20;5.93;;;3.37;;
16813;SDS011;8524;57.650;11.926;2022-10-16T05:34:48;7.77;;;3.73;;
16813;SDS011;8524;57.650;11.926;2022-10-16T05:37:17;9.47;;;4.60;;
16813;SDS011;8524;57.650;11.926;2022-10-16T05:39:44;14.50;;;4.90;;
16813;SDS011;8524;57.650;11.926;2022-10-16T05:42:10;6.93;;;4.10;;
16813;SDS011;8524;57.650;11.926;2022-10-16T05:44:37;9.83;;;5.00;;
16813;SDS011;8524;57.650;11.926;2022-10-16T05:47:04;8.30;;;5.00;;
16813;SDS011;8524;57.650;11.926;2022-10-16T05:49:31;11.70;;;5.30;;
16813;SDS011;8524;57.650;11.926;2022-10-16T05:51:59;14.57;;;5.60;;
16813;SDS011;8524;57.650;11.926;2022-10-16T05:54:26;15.30;;;5.93;;
16813;SDS011;8524;57.650;11.926;2022-10-16T05:56:53;12.57;;;5.93;;
16813;SDS011;8524;57.650;11.926;2022-10-16T05:59:20;9.83;;;5.37;;
16813;SDS011;8524;57.650;11.926;2022-10-16T06:01:46;13.30;;;6.37;;
16813;SDS011;8524;57.650;11.926;2022-10-16T06:04:14;7.90;;;5.07;;
16813;SDS011;8524;57.650;11.926;2022-10-16T06:06:41;12.63;;;6.00;;
16813;SDS011;8524;57.650;11.926;2022-10-16T06:09:09;15.47;;;6.57;;
16813;SDS011;8524;57.650;11.926;2022-10-16T06:11:36;12.40;;;6.23;;
16813;SDS011;8524;57.650;11.926;2022-10-16T06:14:03;13.57;;;6.23;;
16813;SDS011;8524;57.650;11.926;2022-10-16T06:16:32;8.60;;;6.33;;
16813;SDS011;8524;57.650;11.926;2022-10-16T06:19:00;12.43;;;6.30;;
16813;SDS011;8524;57.650;11.926;2022-10-16T06:21:27;12.53;;;6.03;;
16813;SDS011;8524;57.650;11.926;2022-10-16T06:23:55;12.33;;;5.80;;
16813;SDS011;8524;57.650;11.926;2022-10-16T06:26:24;10.80;;;5.60;;
16813;SDS011;8524;57.650;11.926;2022-10-16T06:28:53;10.03;;;5.67;;
16813;SDS011;8524;57.650;11.926;2022-10-16T06:31:21;8.57;;;5.47;;
16813;SDS011;8524;57.650;11.926;2022-10-16T06:33:52;14.00;;;5.97;;
16813;SDS011;8524;57.650;11.926;2022-10-16T06:36:20;10.27;;;5.33;;
16813;SDS011;8524;57.650;11.926;2022-10-16T06:38:47;10.27;;;4.80;;
16813;SDS011;8524;57.650;11.926;2022-10-16T06:41:15;10.07;;;5.17;;
16813;SDS011;8524;57.650;11.926;2022-10-16T06:43:45;7.60;;;4.13;;
16813;SDS011;8524;57.650;11.926;2022-10-16T06:46:13;9.67;;;4.80;;
16813;SDS011;8524;57.650;11.926;2022-10-16T06:48:41;11.87;;;4.50;;
16813;SDS011;8524;57.650;11.926;2022-10-16T06:51:09;8.53;;;3.77;;
16813;SDS011;8524;57.650;11.926;2022-10-16T06:53:38;8.10;;;3.70;;
16813;SDS011;8524;57.650;11.926;2022-10-16T06:56:09;9.23;;;3.10;;
16813;SDS011;8524;57.650;11.926;2022-10-16T06:58:37;6.03;;;3.23;;
16813;SDS011;8524;57.650;11.926;2022-10-16T07:01:06;9.50;;;3.30;;
16813;SDS011;8524;57.650;11.926;2022-10-16T07:03:35;7.67;;;3.20;;
16813;SDS011;8524;57.650;11.926;2022-10-16T07:06:03;8.40;;;2.60;;
16813;SDS011;8524;57.650;11.926;2022-10-16T07:08:31;4.47;;;2.60;;
16813;SDS011;8524;57.650;11.926;2022-10-16T07:10:59;8.10;;;3.37;;
16813;SDS011;8524;57.650;11.926;2022-10-16T07:13:26;7.33;;;2.63;;
16813;SDS011;8524;57.650;11.926;2022-10-16T07:15:53;9.47;;;3.73;;
16813;SDS011;8524;57.650;11.926;2022-10-16T07:18:21;6.93;;;2.90;;
16813;SDS011;8524;57.650;11.926;2022-10-16T07:20:51;10.23;;;3.17;;
16813;SDS011;8524;57.650;11.926;2022-10-16T07:23:18;6.17;;;3.17;;
16813;SDS011;8524;57.650;11.926;2022-10-16T07:25:45;8.47;;;2.70;;
16813;SDS011;8524;57.650;11.926;2022-10-16T07:28:19;9.03;;;2.90;;
16813;SDS011;8524;57.650;11.926;2022-10-16T07:30:45;7.93;;;2.77;;
16813;SDS011;8524;57.650;11.926;2022-10-16T07:33:12;6.40;;;2.10;;
16813;SDS011;8524;57.650;11.926;2022-10-16T07:35:48;6.63;;;2.60;;
16813;SDS011;8524;57.650;11.926;2022-10-16T07:38:15;7.97;;;2.40;;
16813;SDS011;8524;57.650;11.926;2022-10-16T07:40:42;7.93;;;2.67;;
16813;SDS011;8524;57.650;11.926;2022-10-16T07:43:09;8.10;;;2.57;;
16813;SDS011;8524;57.650;11.926;2022-10-16T07:45:36;9.33;;;2.50;;
16813;SDS011;8524;57.650;11.926;2022-10-16T07:48:03;16.33;;;3.33;;
16813;SDS011;8524;57.650;11.926;2022-10-16T07:50:30;8.10;;;2.63;;
16813;SDS011;8524;57.650;11.926;2022-10-16T07:52:58;6.13;;;2.60;;
16813;SDS011;8524;57.650;11.926;2022-10-16T07:55:25;9.20;;;2.60;;
16813;SDS011;8524;57.650;11.926;2022-10-16T07:57:52;11.93;;;2.80;;
16813;SDS011;8524;57.650;11.926;2022-10-16T08:00:19;11.43;;;3.27;;
16813;SDS011;8524;57.650;11.926;2022-10-16T08:02:46;6.50;;;2.10;;
16813;SDS011;8524;57.650;11.926;2022-10-16T08:05:13;10.40;;;2.90;;
16813;SDS011;8524;57.650;11.926;2022-10-16T08:07:40;9.20;;;3.00;;
16813;SDS011;8524;57.650;11.926;2022-10-16T08:10:10;10.80;;;3.13;;
16813;SDS011;8524;57.650;11.926;2022-10-16T08:12:42;13.50;;;3.20;;
16813;SDS011;8524;57.650;11.926;2022-10-16T08:15:09;13.37;;;3.80;;
16813;SDS011;8524;57.650;11.926;2022-10-16T08:17:36;10.77;;;4.03;;
16813;SDS011;8524;57.650;11.926;2022-10-16T08:20:04;11.77;;;3.47;;
16813;SDS011;8524;57.650;11.926;2022-10-16T08:22:31;15.07;;;3.80;;
16813;SDS011;8524;57.650;11.926;2022-10-16T08:24:58;12.53;;;3.40;;
16813;SDS011;8524;57.650;11.926;2022-10-16T08:27:30;11.63;;;3.33;;
16813;SDS011;8524;57.650;11.926;2022-10-16T08:29:57;10.37;;;3.10;;
16813;SDS011;8524;57.650;11.926;2022-10-16T08:32:24;12.43;;;3.30;;
16813;SDS011;8524;57.650;11.926;2022-10-16T08:34:51;11.30;;;3.30;;
16813;SDS011;8524;57.650;11.926;2022-10-16T08:37:18;11.83;;;3.07;;
16813;SDS011;8524;57.650;11.926;2022-10-16T08:39:45;9.87;;;3.00;;
16813;SDS011;8524;57.650;11.926;2022-10-16T08:42:15;10.13;;;3.13;;
16813;SDS011;8524;57.650;11.926;2022-10-16T08:48:00;11.60;;;3.00;;
16813;SDS011;8524;57.650;11.926;2022-10-16T08:50:36;11.67;;;3.10;;
16813;SDS011;8524;57.650;11.926;2022-10-16T08:53:05;16.33;;;3.70;;
16813;SDS011;8524;57.650;11.926;2022-10-16T08:55:33;14.33;;;3.20;;
16813;SDS011;8524;57.650;11.926;2022-10-16T08:58:10;11.20;;;3.23;;
16813;SDS011;8524;57.650;11.926;2022-10-16T09:00:41;11.40;;;3.10;;
16813;SDS011;8524;57.650;11.926;2022-10-16T09:03:13;14.40;;;3.70;;
16813;SDS011;8524;57.650;11.926;2022-10-16T09:05:49;15.93;;;4.20;;
16813;SDS011;8524;57.650;11.926;2022-10-16T09:08:31;12.10;;;3.63;;
16813;SDS011;8524;57.650;11.926;2022-10-16T09:11:08;13.10;;;3.27;;
16813;SDS011;8524;57.650;11.926;2022-10-16T09:13:43;11.23;;;3.23;;
16813;SDS011;8524;57.650;11.926;2022-10-16T09:16:18;13.50;;;3.87;;
16813;SDS011;8524;57.650;11.926;2022-10-16T09:18:51;13.83;;;3.40;;
16813;SDS011;8524;57.650;11.926;2022-10-16T09:21:25;11.37;;;3.30;;
16813;SDS011;8524;57.650;11.926;2022-10-16T09:23:56;15.90;;;3.80;;
16813;SDS011;8524;57.650;11.926;2022-10-16T09:26:25;15.03;;;3.93;;
16813;SDS011;8524;57.650;11.926;2022-10-16T09:28:52;14.30;;;3.80;;
16813;SDS011;8524;57.650;11.926;2022-10-16T09:31:21;14.43;;;3.47;;
16813;SDS011;8524;57.650;11.926;2022-10-16T09:33:50;10.83;;;3.53;;
16813;SDS011;8524;57.650;11.926;2022-10-16T09:36:21;13.33;;;3.30;;
16813;SDS011;8524;57.650;11.926;2022-10-16T09:39:01;17.30;;;3.70;;
16813;SDS011;8524;57.650;11.926;2022-10-16T09:41:29;10.80;;;3.40;;
16813;SDS011;8524;57.650;11.926;2022-10-16T09:43:56;13.23;;;3.63;;
16813;SDS011;8524;57.650;11.926;2022-10-16T09:46:27;12.50;;;3.50;;
16813;SDS011;8524;57.650;11.926;2022-10-16T09:48:56;15.33;;;4.00;;
16813;SDS011;8524;57.650;11.926;2022-10-16T09:51:25;13.67;;;3.33;;
16813;SDS011;8524;57.650;11.926;2022-10-16T09:53:54;11.27;;;3.40;;
16813;SDS011;8524;57.650;11.926;2022-10-16T09:56:23;19.53;;;3.53;;
16813;SDS011;8524;57.650;11.926;2022-10-16T09:58:53;15.37;;;3.73;;
16813;SDS011;8524;57.650;11.926;2022-10-16T10:01:21;12.23;;;3.20;;
16813;SDS011;8524;57.650;11.926;2022-10-16T10:03:55;14.83;;;3.80;;
16813;SDS011;8524;57.650;11.926;2022-10-16T10:06:26;14.43;;;4.00;;
16813;SDS011;8524;57.650;11.926;2022-10-16T10:08:56;12.93;;;3.20;;
16813;SDS011;8524;57.650;11.926;2022-10-16T10:11:39;10.43;;;3.10;;
16813;SDS011;8524;57.650;11.926;2022-10-16T10:14:21;10.07;;;3.07;;
16813;SDS011;8524;57.650;11.926;2022-10-16T10:16:50;11.40;;;3.17;;
16813;SDS011;8524;57.650;11.926;2022-10-16T10:19:20;12.07;;;3.40;;
16813;SDS011;8524;57.650;11.926;2022-10-16T10:21:48;14.77;;;3.50;;
16813;SDS011;8524;57.650;11.926;2022-10-16T10:24:17;15.87;;;3.80;;
16813;SDS011;8524;57.650;11.926;2022-10-16T10:26:48;13.57;;;3.37;;
16813;SDS011;8524;57.650;11.926;2022-10-16T10:29:32;12.57;;;3.70;;
16813;SDS011;8524;57.650;11.926;2022-10-16T10:32:09;15.50;;;4.07;;
16813;SDS011;8524;57.650;11.926;2022-10-16T10:34:52;15.07;;;3.27;;
16813;SDS011;8524;57.650;11.926;2022-10-16T10:37:30;12.57;;;3.50;;
16813;SDS011;8524;57.650;11.926;2022-10-16T10:40:11;14.83;;;4.10;;
16813;SDS011;8524;57.650;11.926;2022-10-16T10:42:49;11.90;;;3.53;;
16813;SDS011;8524;57.650;11.926;2022-10-16T10:45:25;16.00;;;4.27;;
16813;SDS011;8524;57.650;11.926;2022-10-16T10:47:59;13.87;;;4.03;;
16813;SDS011;8524;57.650;11.926;2022-10-16T10:50:43;10.63;;;3.83;;
16813;SDS011;8524;57.650;11.926;2022-10-16T10:53:20;13.00;;;4.03;;
16813;SDS011;8524;57.650;11.926;2022-10-16T10:55:54;16.40;;;4.10;;
16813;SDS011;8524;57.650;11.926;2022-10-16T10:58:43;17.37;;;5.17;;
16813;SDS011;8524;57.650;11.926;2022-10-16T11:01:30;14.67;;;4.07;;
16813;SDS011;8524;57.650;11.926;2022-10-16T11:04:08;14.87;;;3.90;;
16813;SDS011;8524;57.650;11.926;2022-10-16T11:06:51;16.27;;;4.73;;
16813;SDS011;8524;57.650;11.926;2022-10-16T11:09:22;16.03;;;5.03;;
16813;SDS011;8524;57.650;11.926;2022-10-16T11:11:52;19.13;;;5.20;;
16813;SDS011;8524;57.650;11.926;2022-10-16T11:14:25;16.23;;;4.37;;
16813;SDS011;8524;57.650;11.926;2022-10-16T11:16:58;12.93;;;4.27;;
16813;SDS011;8524;57.650;11.926;2022-10-16T11:19:33;13.50;;;3.77;;
16813;SDS011;8524;57.650;11.926;2022-10-16T11:22:09;12.27;;;3.73;;
16813;SDS011;8524;57.650;11.926;2022-10-16T11:24:44;17.80;;;3.93;;
16813;SDS011;8524;57.650;11.926;2022-10-16T11:27:15;12.03;;;3.70;;
16813;SDS011;8524;57.650;11.926;2022-10-16T11:29:46;13.83;;;3.87;;
16813;SDS011;8524;57.650;11.926;2022-10-16T11:32:20;16.77;;;3.93;;
16813;SDS011;8524;57.650;11.926;2022-10-16T11:34:50;13.70;;;3.47;;
16813;SDS011;8524;57.650;11.926;2022-10-16T11:37:24;12.83;;;3.47;;
16813;SDS011;8524;57.650;11.926;2022-10-16T11:39:57;18.27;;;4.47;;
16813;SDS011;8524;57.650;11.926;2022-10-16T11:42:32;12.93;;;3.63;;
16813;SDS011;8524;57.650;11.926;2022-10-16T11:45:07;13.40;;;3.37;;
16813;SDS011;8524;57.650;11.926;2022-10-16T11:47:43;12.37;;;3.73;;
16813;SDS011;8524;57.650;11.926;2022-10-16T11:50:17;10.73;;;3.67;;
16813;SDS011;8524;57.650;11.926;2022-10-16T11:52:51;9.20;;;2.90;;
16813;SDS011;8524;57.650;11.926;2022-10-16T11:55:27;14.17;;;3.60;;
16813;SDS011;8524;57.650;11.926;2022-10-16T11:57:59;12.00;;;3.30;;
16813;SDS011;8524;57.650;11.926;2022-10-16T12:00:31;7.77;;;2.57;;
16813;SDS011;8524;57.650;11.926;2022-10-16T12:03:10;6.23;;;1.57;;
16813;SDS011;8524;57.650;11.926;2022-10-16T12:05:48;9.17;;;2.50;;
16813;SDS011;8524;57.650;11.926;2022-10-16T12:08:26;15.60;;;3.80;;
16813;SDS011;8524;57.650;11.926;2022-10-16T12:10:53;15.67;;;3.17;;
16813;SDS011;8524;57.650;11.926;2022-10-16T12:13:33;13.13;;;3.60;;
16813;SDS011;8524;57.650;11.926;2022-10-16T12:16:05;13.00;;;3.37;;
16813;SDS011;8524;57.650;11.926;2022-10-16T12:18:33;14.53;;;3.80;;
16813;SDS011;8524;57.650;11.926;2022-10-16T12:21:00;11.73;;;3.07;;
16813;SDS011;8524;57.650;11.926;2022-10-16T12:23:32;12.93;;;3.63;;
16813;SDS011;8524;57.650;11.926;2022-10-16T12:26:03;16.60;;;3.67;;
16813;SDS011;8524;57.650;11.926;2022-10-16T12:28:31;13.97;;;2.90;;
16813;SDS011;8524;57.650;11.926;2022-10-16T12:30:59;17.33;;;3.40;;
16813;SDS011;8524;57.650;11.926;2022-10-16T12:33:28;18.53;;;3.73;;
16813;SDS011;8524;57.650;11.926;2022-10-16T12:35:58;13.90;;;3.07;;
16813;SDS011;8524;57.650;11.926;2022-10-16T12:38:27;16.77;;;3.20;;
16813;SDS011;8524;57.650;11.926;2022-10-16T12:40:59;13.77;;;2.83;;
16813;SDS011;8524;57.650;11.926;2022-10-16T12:43:36;18.97;;;3.70;;
16813;SDS011;8524;57.650;11.926;2022-10-16T12:46:20;15.63;;;3.23;;
16813;SDS011;8524;57.650;11.926;2022-10-16T12:48:49;14.00;;;3.47;;
16813;SDS011;8524;57.650;11.926;2022-10-16T12:51:21;12.53;;;2.90;;
16813;SDS011;8524;57.650;11.926;2022-10-16T12:54:00;12.40;;;2.50;;
16813;SDS011;8524;57.650;11.926;2022-10-16T12:56:31;6.80;;;2.27;;
16813;SDS011;8524;57.650;11.926;2022-10-16T12:59:08;6.43;;;1.83;;
16813;SDS011;8524;57.650;11.926;2022-10-16T13:01:47;8.77;;;1.87;;
16813;SDS011;8524;57.650;11.926;2022-10-16T13:04:34;6.53;;;1.80;;
16813;SDS011;8524;57.650;11.926;2022-10-16T13:07:19;11.50;;;2.17;;
16813;SDS011;8524;57.650;11.926;2022-10-16T13:10:06;8.90;;;2.00;;
16813;SDS011;8524;57.650;11.926;2022-10-16T13:12:53;9.33;;;2.23;;
16813;SDS011;8524;57.650;11.926;2022-10-16T13:15:54;7.27;;;2.20;;
16813;SDS011;8524;57.650;11.926;2022-10-16T13:18:37;8.93;;;2.07;;
16813;SDS011;8524;57.650;11.926;2022-10-16T13:21:18;6.33;;;2.10;;
16813;SDS011;8524;57.650;11.926;2022-10-16T13:23:57;11.63;;;2.23;;
16813;SDS011;8524;57.650;11.926;2022-10-16T13:26:31;8.23;;;2.37;;
16813;SDS011;8524;57.650;11.926;2022-10-16T13:29:08;9.80;;;2.23;;
16813;SDS011;8524;57.650;11.926;2022-10-16T13:31:36;7.03;;;2.23;;
16813;SDS011;8524;57.650;11.926;2022-10-16T13:34:05;7.20;;;2.17;;
16813;SDS011;8524;57.650;11.926;2022-10-16T13:36:42;8.93;;;2.03;;
16813;SDS011;8524;57.650;11.926;2022-10-16T13:39:12;6.87;;;2.23;;
16813;SDS011;8524;57.650;11.926;2022-10-16T13:41:40;8.00;;;2.53;;
16813;SDS011;8524;57.650;11.926;2022-10-16T13:44:11;8.90;;;2.10;;
16813;SDS011;8524;57.650;11.926;2022-10-16T13:46:41;8.50;;;2.30;;
16813;SDS011;8524;57.650;11.926;2022-10-16T13:49:11;8.47;;;2.53;;
16813;SDS011;8524;57.650;11.926;2022-10-16T13:51:40;8.67;;;2.93;;
16813;SDS011;8524;57.650;11.926;2022-10-16T13:54:09;5.97;;;2.43;;
16813;SDS011;8524;57.650;11.926;2022-10-16T13:56:38;11.20;;;2.60;;
16813;SDS011;8524;57.650;11.926;2022-10-16T13:59:06;8.07;;;2.20;;
16813;SDS011;8524;57.650;11.926;2022-10-16T14:01:49;9.73;;;2.90;;
16813;SDS011;8524;57.650;11.926;2022-10-16T14:04:20;10.83;;;2.47;;
16813;SDS011;8524;57.650;11.926;2022-10-16T14:06:48;11.10;;;2.93;;
16813;SDS011;8524;57.650;11.926;2022-10-16T14:09:20;11.37;;;2.50;;
16813;SDS011;8524;57.650;11.926;2022-10-16T14:11:51;10.93;;;3.10;;
16813;SDS011;8524;57.650;11.926;2022-10-16T14:14:22;14.17;;;2.87;;
16813;SDS011;8524;57.650;11.926;2022-10-16T14:16:50;11.10;;;2.70;;
16813;SDS011;8524;57.650;11.926;2022-10-16T14:19:19;11.43;;;2.93;;
16813;SDS011;8524;57.650;11.926;2022-10-16T14:21:48;10.67;;;2.67;;
16813;SDS011;8524;57.650;11.926;2022-10-16T14:24:22;8.97;;;2.63;;
16813;SDS011;8524;57.650;11.926;2022-10-16T14:26:53;11.07;;;2.60;;
16813;SDS011;8524;57.650;11.926;2022-10-16T14:29:23;9.43;;;2.80;;
16813;SDS011;8524;57.650;11.926;2022-10-16T14:31:55;12.20;;;2.77;;
16813;SDS011;8524;57.650;11.926;2022-10-16T14:34:23;14.70;;;3.30;;
16813;SDS011;8524;57.650;11.926;2022-10-16T14:36:58;9.73;;;3.13;;
16813;SDS011;8524;57.650;11.926;2022-10-16T14:39:27;11.67;;;2.90;;
16813;SDS011;8524;57.650;11.926;2022-10-16T14:41:55;10.23;;;2.97;;
16813;SDS011;8524;57.650;11.926;2022-10-16T14:44:27;10.87;;;3.00;;
16813;SDS011;8524;57.650;11.926;2022-10-16T14:46:56;10.10;;;2.60;;
16813;SDS011;8524;57.650;11.926;2022-10-16T14:49:24;10.43;;;2.60;;
16813;SDS011;8524;57.650;11.926;2022-10-16T14:51:53;11.43;;;2.80;;
16813;SDS011;8524;57.650;11.926;2022-10-16T14:54:20;14.53;;;3.67;;
16813;SDS011;8524;57.650;11.926;2022-10-16T14:56:48;15.63;;;3.50;;
16813;SDS011;8524;57.650;11.926;2022-10-16T14:59:18;7.00;;;2.30;;
16813;SDS011;8524;57.650;11.926;2022-10-16T15:01:56;7.80;;;3.13;;
16813;SDS011;8524;57.650;11.926;2022-10-16T15:04:23;9.53;;;2.47;;
16813;SDS011;8524;57.650;11.926;2022-10-16T15:06:50;8.07;;;3.00;;